Time;durP1;ratioP1;P1;durP2;ratioP2;P2;SDS_P1;SDS_P2;PMS_P1;PMS_P2;Temp;Humidity;BMP_temperature;BMP_pressure;BME280_temperature;BME280_humidity;BME280_pressure;Samples;Min_cycle;Max_cycle;Signal;HPM_P1;HPM_P2
2023/12/13 00:01:12;;;;;;;0.00;0.00;;;;;;;7.79;100.00;97676.31;5115917;28;20264;-51
2023/12/13 00:03:58;;;;;;;0.00;0.00;;;;;;;7.85;100.00;97671.41;5115838;28;20284;-52
2023/12/13 00:06:45;;;;;;;0.00;0.00;;;;;;;7.83;100.00;97664.59;5115568;28;20206;-52
2023/12/13 00:09:32;;;;;;;0.00;0.00;;;;;;;7.95;100.00;97669.75;5115455;28;20194;-51
2023/12/13 00:12:20;;;;;;;0.00;0.00;;;;;;;7.98;100.00;97666.03;5115561;28;20276;-51
2023/12/13 00:15:08;;;;;;;0.00;0.00;;;;;;;7.93;100.00;97666.41;5114289;28;20691;-52
2023/12/13 00:17:56;;;;;;;0.00;0.00;;;;;;;7.86;100.00;97661.72;5115259;28;20225;-51
2023/12/13 00:20:43;;;;;;;0.00;0.00;;;;;;;7.79;100.00;97655.22;5115328;28;20293;-51
2023/12/13 00:23:30;;;;;;;0.00;0.00;;;;;;;7.67;100.00;97657.84;5115391;28;20240;-51
2023/12/13 00:26:18;;;;;;;0.00;0.00;;;;;;;7.75;100.00;97659.91;5115277;28;20214;-52
2023/12/13 00:29:06;;;;;;;0.00;0.00;;;;;;;7.91;100.00;97656.91;5113475;28;20202;-52
2023/12/13 00:31:53;;;;;;;0.00;0.00;;;;;;;7.92;100.00;97662.09;5115219;28;20354;-51
2023/12/13 00:34:40;;;;;;;0.00;0.00;;;;;;;7.98;100.00;97666.03;5115233;28;20190;-51
2023/12/13 00:37:27;;;;;;;0.00;0.00;;;;;;;8.03;100.00;97656.81;5114754;28;20221;-51
2023/12/13 00:40:14;;;;;;;0.00;0.00;;;;;;;7.97;100.00;97652.00;5115040;28;20194;-52
2023/12/13 00:43:01;;;;;;;0.00;0.00;;;;;;;7.99;100.00;97651.88;5113520;28;20706;-51
2023/12/13 00:45:49;;;;;;;0.00;0.00;;;;;;;8.02;100.00;97652.50;5115001;28;20195;-51
2023/12/13 00:48:35;;;;;;;0.00;0.00;;;;;;;8.10;100.00;97649.25;5115239;28;20264;-51
2023/12/13 00:51:23;;;;;;;0.00;0.00;;;;;;;8.22;100.00;97639.56;5114855;28;20202;-51
2023/12/13 00:54:11;;;;;;;0.00;0.00;;;;;;;8.03;100.00;97635.72;5114942;28;20224;-52
2023/12/13 00:57:00;;;;;;;0.00;0.00;;;;;;;8.06;100.00;97645.19;5114472;28;20344;-52
2023/12/13 00:59:47;;;;;;;0.00;0.00;;;;;;;8.00;100.00;97635.94;5113484;28;20197;-51
2023/12/13 01:02:35;;;;;;;0.00;0.00;;;;;;;7.82;100.00;97626.88;5114761;28;20190;-52
2023/12/13 01:05:22;;;;;;;0.00;0.00;;;;;;;7.93;100.00;97636.56;5114727;28;20198;-51
2023/12/13 01:08:09;;;;;;;0.00;0.00;;;;;;;7.88;100.00;97638.72;5114482;28;20190;-52
2023/12/13 01:10:56;;;;;;;0.00;0.00;;;;;;;7.84;100.00;97646.03;5114353;28;20190;-51
2023/12/13 01:13:45;;;;;;;0.00;0.00;;;;;;;7.99;100.00;97651.88;5113260;28;20198;-52
2023/12/13 01:16:33;;;;;;;0.00;0.00;;;;;;;8.15;100.00;97655.03;5114539;28;20209;-52
2023/12/13 01:19:21;;;;;;;0.00;0.00;;;;;;;8.00;100.00;97656.19;5113834;28;20786;-52
2023/12/13 01:22:09;;;;;;;0.00;0.00;;;;;;;8.04;100.00;97663.75;5114090;28;20263;-51
2023/12/13 01:24:56;;;;;;;0.00;0.00;;;;;;;7.87;100.00;97658.13;5114260;28;20193;-52
2023/12/13 01:27:43;;;;;;;0.00;0.00;;;;;;;7.85;100.00;97654.78;5114046;28;20255;-52
2023/12/13 01:30:30;;;;;;;0.00;0.00;;;;;;;8.07;100.00;97654.78;5113970;28;20256;-51
2023/12/13 01:33:17;;;;;;;0.00;0.00;;;;;;;8.17;100.00;97661.00;5113901;28;20214;-51
2023/12/13 01:36:06;;;;;;;0.00;0.00;;;;;;;8.20;100.00;97657.28;5113864;28;20702;-52
2023/12/13 01:38:52;;;;;;;0.00;0.00;;;;;;;8.32;100.00;97653.69;5113739;28;20235;-52
2023/12/13 01:41:39;;;;;;;0.00;0.00;;;;;;;8.43;100.00;97659.00;5113534;28;20668;-52
2023/12/13 01:44:26;;;;;;;0.00;0.00;;;;;;;8.42;100.00;97656.47;5112432;28;20305;-52
2023/12/13 01:47:13;;;;;;;0.00;0.00;;;;;;;8.38;100.00;97649.75;5113917;28;20198;-52
2023/12/13 01:50:00;;;;;;;0.00;0.00;;;;;;;8.28;100.00;97637.25;5113500;28;20714;-51
2023/12/13 01:52:48;;;;;;;0.00;0.00;;;;;;;8.26;100.00;97640.97;5113591;28;20219;-51
2023/12/13 01:55:35;;;;;;;0.00;0.00;;;;;;;8.17;100.00;97637.28;5113707;28;20232;-51
2023/12/13 01:58:23;;;;;;;0.00;0.00;;;;;;;8.12;100.00;97647.34;5111772;28;20218;-52
2023/12/13 02:01:10;;;;;;;0.00;0.00;;;;;;;7.76;100.00;97629.97;5113640;28;20193;-51
2023/12/13 02:04:02;;;;;;;0.00;0.00;;;;;;;7.68;100.00;97634.97;5113425;28;20194;-51
2023/12/13 02:06:49;;;;;;;0.00;0.00;;;;;;;7.50;100.00;97633.75;5113287;28;20194;-51
2023/12/13 02:09:37;;;;;;;0.00;0.00;;;;;;;7.46;100.00;97639.25;5113525;28;20269;-52
2023/12/13 02:12:24;;;;;;;0.00;0.00;;;;;;;7.48;100.00;97636.50;5113188;28;20714;-52
2023/12/13 02:15:11;;;;;;;0.00;0.00;;;;;;;7.56;100.00;97635.91;5112077;28;20190;-51
2023/12/13 02:17:58;;;;;;;0.00;0.00;;;;;;;7.52;100.00;97639.72;5112961;28;20229;-52
2023/12/13 02:20:45;;;;;;;0.00;0.00;;;;;;;7.58;100.00;97648.00;5113156;28;20195;-52
2023/12/13 02:23:33;;;;;;;0.00;0.00;;;;;;;7.83;100.00;97646.97;5113277;28;20190;-52
2023/12/13 02:26:20;;;;;;;0.00;0.00;;;;;;;7.88;100.00;97646.63;5113114;28;20393;-52
2023/12/13 02:29:08;;;;;;;0.00;0.00;;;;;;;7.77;100.00;97652.72;5112078;28;20194;-52
2023/12/13 02:31:56;;;;;;;0.00;0.00;;;;;;;7.85;100.00;97645.06;5112912;28;20198;-51
2023/12/13 02:34:43;;;;;;;0.00;0.00;;;;;;;7.83;100.00;97646.97;5113063;28;20277;-52
2023/12/13 02:37:30;;;;;;;0.00;0.00;;;;;;;7.82;100.00;97644.47;5112711;28;20341;-52
2023/12/13 02:40:19;;;;;;;0.00;0.00;;;;;;;7.96;100.00;97641.59;5112924;28;20205;-52
2023/12/13 02:43:06;;;;;;;0.10;0.10;;;;;;;7.88;100.00;97644.81;5111865;28;20568;-52
2023/12/13 02:45:53;;;;;;;0.00;0.00;;;;;;;7.77;100.00;97633.44;5113234;28;20198;-52
2023/12/13 02:48:40;;;;;;;0.00;0.00;;;;;;;7.75;100.00;97638.81;5112737;28;20190;-52
2023/12/13 02:51:27;;;;;;;0.00;0.00;;;;;;;7.70;100.00;97627.78;5114324;28;20194;-51
2023/12/13 02:54:13;;;;;;;0.00;0.00;;;;;;;7.63;100.00;97629.22;5115887;28;20271;-51
2023/12/13 02:57:02;;;;;;;0.00;0.00;;;;;;;7.69;100.00;97634.84;5116763;28;20213;-52
2023/12/13 02:59:48;;;;;;;0.00;0.00;;;;;;;7.87;100.00;97631.75;5115566;28;20214;-52
2023/12/13 03:02:36;;;;;;;0.00;0.00;;;;;;;7.84;100.00;97627.56;5116781;28;20189;-52
2023/12/13 03:05:22;;;;;;;0.00;0.00;;;;;;;7.79;100.00;97623.59;5116676;28;20705;-52
2023/12/13 03:08:09;;;;;;;0.00;0.00;;;;;;;7.65;100.00;97619.41;5116812;28;20199;-51
2023/12/13 03:10:57;;;;;;;0.00;0.00;;;;;;;7.77;100.00;97620.25;5116766;28;20193;-51
2023/12/13 03:13:45;;;;;;;0.00;0.00;;;;;;;7.72;100.00;97612.69;5115269;28;20206;-52
2023/12/13 03:16:32;;;;;;;0.00;0.00;;;;;;;7.62;100.00;97611.72;5116517;28;20241;-51
2023/12/13 03:19:19;;;;;;;0.10;0.10;;;;;;;7.61;100.00;97607.41;5116454;28;20213;-51
2023/12/13 03:22:05;;;;;;;0.00;0.00;;;;;;;7.55;100.00;97608.75;5116460;28;20324;-52
2023/12/13 03:24:52;;;;;;;0.00;0.00;;;;;;;7.45;100.00;97600.69;5116527;28;20190;-52
2023/12/13 03:27:42;;;;;;;0.00;0.00;;;;;;;7.34;100.00;97605.13;5116543;28;20181;-52
2023/12/13 03:30:31;;;;;;;0.00;0.00;;;;;;;7.32;100.00;97610.47;5116285;28;20529;-52
2023/12/13 03:33:17;;;;;;;0.10;0.10;;;;;;;7.23;100.00;97599.78;5116341;28;20272;-52
2023/12/13 03:36:05;;;;;;;0.10;0.10;;;;;;;7.03;100.00;97599.50;5116467;28;20194;-51
2023/12/13 03:38:51;;;;;;;0.00;0.00;;;;;;;6.86;100.00;97594.66;5116173;28;20292;-51
2023/12/13 03:41:37;;;;;;;0.00;0.00;;;;;;;6.90;100.00;97596.13;5116188;28;20267;-52
2023/12/13 03:44:24;;;;;;;0.00;0.00;;;;;;;6.95;100.00;97591.38;5115065;28;20182;-52
2023/12/13 03:47:13;;;;;;;0.00;0.00;;;;;;;6.91;100.00;97586.44;5116053;28;20193;-52
2023/12/13 03:49:59;;;;;;;0.00;0.00;;;;;;;6.80;100.00;97582.81;5116051;28;20692;-52
2023/12/13 03:52:46;;;;;;;0.00;0.00;;;;;;;7.05;100.00;97592.34;5115899;28;20197;-51
2023/12/13 03:55:33;;;;;;;0.00;0.00;;;;;;;6.94;100.00;97587.03;5115493;28;20194;-52
2023/12/13 03:58:20;;;;;;;0.00;0.00;;;;;;;6.93;100.00;97584.50;5114306;28;20293;-52
2023/12/13 04:01:08;;;;;;;0.00;0.00;;;;;;;6.85;100.00;97588.56;5115813;28;20596;-51
2023/12/13 04:03:57;;;;;;;0.00;0.00;;;;;;;7.00;100.00;97585.75;5114957;28;20186;-52
2023/12/13 04:06:43;;;;;;;0.00;0.00;;;;;;;6.86;100.00;97584.16;5115711;28;20270;-51
2023/12/13 04:09:29;;;;;;;0.00;0.00;;;;;;;6.91;100.00;97587.25;5115617;28;20186;-51
2023/12/13 04:12:17;;;;;;;0.07;0.07;;;;;;;6.81;100.00;97581.00;5115502;28;20201;-52
2023/12/13 04:15:04;;;;;;;0.00;0.00;;;;;;;6.75;100.00;97584.06;5114092;28;20672;-52
2023/12/13 04:17:51;;;;;;;0.00;0.00;;;;;;;6.64;100.00;97586.66;5115091;28;20225;-52
2023/12/13 04:20:39;;;;;;;0.10;0.10;;;;;;;6.88;100.00;97588.34;5115784;28;20193;-51
2023/12/13 04:23:26;;;;;;;0.00;0.00;;;;;;;6.87;100.00;97594.56;5115381;28;20186;-52
2023/12/13 04:26:13;;;;;;;0.00;0.00;;;;;;;6.91;100.00;97589.06;5115634;28;20190;-52
2023/12/13 04:29:00;;;;;;;0.00;0.00;;;;;;;7.10;100.00;97587.56;5114050;28;20190;-51
2023/12/13 04:31:47;;;;;;;0.00;0.00;;;;;;;7.07;100.00;97582.53;5115285;28;20240;-52
2023/12/13 04:34:34;;;;;;;0.00;0.00;;;;;;;7.09;100.00;97585.88;5115212;28;20198;-52
2023/12/13 04:37:22;;;;;;;0.00;0.00;;;;;;;7.28;100.00;97582.72;5115086;28;20210;-51
2023/12/13 04:40:10;;;;;;;0.00;0.00;;;;;;;7.44;100.00;97590.28;5114905;28;20185;-51
2023/12/13 04:42:59;;;;;;;0.03;0.03;;;;;;;7.30;100.00;97587.84;5113652;28;20186;-51
2023/12/13 04:45:45;;;;;;;0.10;0.10;;;;;;;7.34;100.00;97587.50;5114833;28;20292;-52
2023/12/13 04:48:32;;;;;;;0.00;0.00;;;;;;;7.38;100.00;97588.09;5114979;28;20194;-52
2023/12/13 04:51:19;;;;;;;0.00;0.00;;;;;;;7.37;100.00;97582.00;5114687;28;20206;-52
2023/12/13 04:54:07;;;;;;;0.00;0.00;;;;;;;7.47;100.00;97579.50;5114684;28;20194;-52
2023/12/13 04:56:54;;;;;;;0.00;0.00;;;;;;;7.34;100.00;97581.41;5114637;28;20244;-52
2023/12/13 04:59:41;;;;;;;0.00;0.00;;;;;;;7.45;100.00;97584.06;5113065;28;20221;-51
2023/12/13 05:02:28;;;;;;;0.00;0.00;;;;;;;7.29;100.00;97586.19;5114759;28;20194;-52
2023/12/13 05:05:15;;;;;;;0.00;0.00;;;;;;;7.33;100.00;97583.19;5114603;28;20198;-52
2023/12/13 05:08:04;;;;;;;0.00;0.00;;;;;;;7.31;100.00;97590.38;5114558;28;20312;-51
2023/12/13 05:10:52;;;;;;;0.00;0.00;;;;;;;7.44;100.00;97579.75;5114292;28;20194;-52
2023/12/13 05:13:39;;;;;;;0.00;0.00;;;;;;;7.33;100.00;97592.88;5113182;28;20195;-52
2023/12/13 05:16:26;;;;;;;0.00;0.00;;;;;;;7.21;100.00;97585.91;5114325;28;20199;-52
2023/12/13 05:19:12;;;;;;;0.00;0.00;;;;;;;7.11;100.00;97577.88;5113702;28;20256;-52
2023/12/13 05:21:59;;;;;;;0.00;0.00;;;;;;;7.11;100.00;97573.44;5114345;28;20198;-52
2023/12/13 05:24:46;;;;;;;0.00;0.00;;;;;;;7.02;100.00;97571.50;5114329;28;20210;-52
2023/12/13 05:27:35;;;;;;;0.00;0.00;;;;;;;6.96;100.00;97571.16;5113999;28;20197;-51
2023/12/13 05:30:23;;;;;;;0.00;0.00;;;;;;;6.83;100.00;97569.41;5114476;28;20186;-51
2023/12/13 05:33:11;;;;;;;0.00;0.00;;;;;;;6.75;100.00;97569.13;5113977;28;20194;-52
2023/12/13 05:35:58;;;;;;;0.00;0.00;;;;;;;6.75;100.00;97568.28;5113881;28;20217;-51
2023/12/13 05:38:45;;;;;;;0.00;0.00;;;;;;;6.79;100.00;97565.34;5113599;28;20300;-51
2023/12/13 05:41:31;;;;;;;0.00;0.00;;;;;;;6.88;100.00;97563.81;5114001;28;20190;-51
2023/12/13 05:44:20;;;;;;;0.07;0.07;;;;;;;6.88;100.00;97571.72;5112523;28;20185;-52
2023/12/13 05:47:06;;;;;;;0.00;0.00;;;;;;;6.92;100.00;97567.03;5113649;28;20201;-51
2023/12/13 05:49:53;;;;;;;0.00;0.00;;;;;;;7.03;100.00;97569.72;5113704;28;20189;-52
2023/12/13 05:52:40;;;;;;;0.00;0.00;;;;;;;7.05;100.00;97570.47;5113938;28;20190;-51
2023/12/13 05:55:27;;;;;;;0.00;0.00;;;;;;;6.99;100.00;97569.09;5113549;28;20236;-51
2023/12/13 05:58:14;;;;;;;0.00;0.00;;;;;;;6.95;100.00;97569.44;5112194;28;20189;-52
2023/12/13 06:01:03;;;;;;;0.00;0.00;;;;;;;7.03;100.00;97565.28;5113428;28;20232;-51
2023/12/13 06:03:50;;;;;;;0.00;0.00;;;;;;;7.02;100.00;97574.13;5113743;28;20193;-52
2023/12/13 06:06:37;;;;;;;0.00;0.00;;;;;;;7.07;100.00;97579.91;5113092;28;20189;-51
2023/12/13 06:09:24;;;;;;;0.00;0.00;;;;;;;7.25;100.00;97576.84;5113259;28;20194;-52
2023/12/13 06:12:11;;;;;;;0.10;0.10;;;;;;;7.40;100.00;97587.03;5113517;28;20281;-52
2023/12/13 06:14:58;;;;;;;0.00;0.00;;;;;;;7.49;100.00;97576.75;5112026;28;20362;-51
2023/12/13 06:17:46;;;;;;;0.00;0.00;;;;;;;7.46;100.00;97576.03;5113189;28;20295;-51
2023/12/13 06:20:33;;;;;;;0.00;0.00;;;;;;;7.51;100.00;97570.41;5112717;28;20241;-51
2023/12/13 06:23:19;;;;;;;0.10;0.10;;;;;;;7.35;100.00;97560.22;5113104;28;20190;-51
2023/12/13 06:26:06;;;;;;;0.00;0.00;;;;;;;7.52;100.00;97564.16;5112829;28;20194;-52
2023/12/13 06:28:53;;;;;;;0.10;0.10;;;;;;;7.44;100.00;97563.94;5111815;28;20206;-52
2023/12/13 06:31:40;;;;;;;0.00;0.00;;;;;;;7.38;100.00;97567.03;5112751;28;20284;-51
2023/12/13 06:34:28;;;;;;;0.00;0.00;;;;;;;7.25;100.00;97567.16;5112932;28;20243;-52
2023/12/13 06:37:15;;;;;;;0.00;0.00;;;;;;;7.17;100.00;97559.81;5113156;28;20688;-51
2023/12/13 06:40:02;;;;;;;0.00;0.00;;;;;;;7.28;100.00;97563.44;5112781;28;20291;-52
2023/12/13 06:42:49;;;;;;;0.00;0.00;;;;;;;7.34;100.00;97555.91;5111802;28;20316;-52
2023/12/13 06:45:36;;;;;;;0.00;0.00;;;;;;;7.34;100.00;97561.19;5112964;28;20194;-52
2023/12/13 06:48:23;;;;;;;0.10;0.10;;;;;;;7.20;100.00;97564.00;5112702;28;20190;-52
2023/12/13 06:51:11;;;;;;;0.00;0.00;;;;;;;7.07;100.00;97563.28;5113122;28;20367;-51
2023/12/13 06:53:58;;;;;;;0.10;0.10;;;;;;;7.00;100.00;97556.78;5113087;28;20237;-51
2023/12/13 06:56:45;;;;;;;0.03;0.03;;;;;;;6.98;100.00;97543.75;5112486;28;20448;-51
2023/12/13 06:59:32;;;;;;;0.00;0.00;;;;;;;6.89;100.00;97540.00;5111265;28;20795;-52
2023/12/13 07:02:20;;;;;;;0.00;0.00;;;;;;;6.96;100.00;97548.28;5112813;28;20205;-51
2023/12/13 07:05:08;;;;;;;0.10;0.10;;;;;;;7.21;100.00;97546.41;5112595;28;20256;-52
2023/12/13 07:07:56;;;;;;;0.00;0.00;;;;;;;6.98;100.00;97542.91;5112746;28;20252;-53
2023/12/13 07:10:43;;;;;;;0.10;0.10;;;;;;;6.93;100.00;97548.50;5112564;28;20194;-53
2023/12/13 07:13:30;;;;;;;0.00;0.00;;;;;;;6.96;100.00;97536.94;5111150;28;20198;-53
2023/12/13 07:16:17;;;;;;;0.00;0.00;;;;;;;6.95;100.00;97545.75;5112798;28;20264;-52
2023/12/13 07:19:04;;;;;;;0.00;0.00;;;;;;;7.12;100.00;97538.25;5112250;28;20736;-53
2023/12/13 07:21:51;;;;;;;0.10;0.10;;;;;;;7.01;100.00;97548.78;5112681;28;20202;-53
2023/12/13 07:24:39;;;;;;;0.00;0.00;;;;;;;7.15;100.00;97547.75;5112609;28;20193;-53
2023/12/13 07:27:26;;;;;;;0.00;0.00;;;;;;;7.10;100.00;97548.06;5112409;28;20309;-53
2023/12/13 07:30:13;;;;;;;0.00;0.00;;;;;;;7.15;100.00;97550.38;5112429;28;20185;-52
2023/12/13 07:33:00;;;;;;;0.10;0.10;;;;;;;7.13;100.00;97550.47;5112768;28;20189;-53
2023/12/13 07:35:47;;;;;;;0.00;0.00;;;;;;;7.18;100.00;97550.13;5112413;28;20194;-52
2023/12/13 07:38:34;;;;;;;0.00;0.00;;;;;;;7.14;100.00;97560.06;5113918;28;20365;-52
2023/12/13 07:41:22;;;;;;;0.00;0.00;;;;;;;7.22;100.00;97558.63;5116161;28;20190;-53
2023/12/13 07:44:09;;;;;;;0.00;0.00;;;;;;;7.23;100.00;97562.94;5115009;28;20193;-53
2023/12/13 07:46:56;;;;;;;0.10;0.10;;;;;;;7.30;100.00;97559.72;5115857;28;20202;-52
2023/12/13 07:49:42;;;;;;;0.00;0.00;;;;;;;7.49;100.00;97566.22;5115962;28;20229;-53
2023/12/13 07:52:29;;;;;;;0.00;0.00;;;;;;;7.34;100.00;97563.81;5116191;28;20315;-52
2023/12/13 07:55:19;;;;;;;0.00;0.00;;;;;;;7.40;100.00;97565.97;5116040;28;20189;-53
2023/12/13 07:58:07;;;;;;;0.03;0.03;;;;;;;7.44;100.00;97566.59;5113775;28;20205;-53
2023/12/13 08:00:54;;;;;;;0.00;0.00;;;;;;;7.38;100.00;97570.50;5115814;28;20236;-52
2023/12/13 08:03:41;;;;;;;0.00;0.00;;;;;;;7.35;100.00;97570.75;5115767;28;20186;-52
2023/12/13 08:06:28;;;;;;;0.00;0.00;;;;;;;7.43;100.00;97578.03;5115969;28;20288;-52
2023/12/13 08:09:15;;;;;;;0.00;0.00;;;;;;;7.49;100.00;97585.50;5115768;28;20191;-52
2023/12/13 08:12:02;;;;;;;0.00;0.00;;;;;;;7.50;100.00;97589.81;5115548;28;20309;-53
2023/12/13 08:14:50;;;;;;;0.00;0.00;;;;;;;7.51;100.00;97580.94;5114490;28;20268;-52
2023/12/13 08:17:37;;;;;;;0.00;0.00;;;;;;;7.41;100.00;97586.06;5115472;28;20244;-53
2023/12/13 08:20:28;;;;;;;0.00;0.00;;;;;;;7.46;100.00;97576.03;5115103;28;20230;-53
2023/12/13 08:23:16;;;;;;;0.00;0.00;;;;;;;7.57;100.00;97579.63;5115604;28;20193;-52
2023/12/13 08:26:03;;;;;;;0.00;0.00;;;;;;;7.60;100.00;97572.31;5115532;28;20189;-52
2023/12/13 08:28:50;;;;;;;0.00;0.00;;;;;;;7.60;100.00;97574.13;5114133;28;20668;-53
2023/12/13 08:31:52;;;;;;;0.00;0.00;;;;;;;7.64;100.00;97573.78;5115252;28;20193;-53
2023/12/13 08:34:41;;;;;;;0.00;0.00;;;;;;;7.81;100.00;97574.25;5114976;28;20296;-52
2023/12/13 08:37:27;;;;;;;0.00;0.00;;;;;;;7.72;100.00;97576.66;5115069;28;20321;-53
2023/12/13 08:40:14;;;;;;;0.00;0.00;;;;;;;7.86;100.00;97580.00;5114913;28;20206;-53
2023/12/13 08:43:01;;;;;;;0.00;0.00;;;;;;;7.81;100.00;97577.72;5113698;28;20279;-53
2023/12/13 08:45:48;;;;;;;0.00;0.00;;;;;;;7.95;100.00;97582.75;5114866;28;20194;-52
2023/12/13 08:48:36;;;;;;;0.00;0.00;;;;;;;7.89;100.00;97575.31;5114530;28;20287;-53
2023/12/13 08:51:24;;;;;;;0.00;0.00;;;;;;;7.99;100.00;97585.97;5114833;28;20194;-53
2023/12/13 08:54:10;;;;;;;0.00;0.00;;;;;;;8.11;100.00;97579.75;5114967;28;20190;-53
2023/12/13 08:56:57;;;;;;;0.00;0.00;;;;;;;8.18;100.00;97582.72;5114449;28;20198;-53
2023/12/13 08:59:44;;;;;;;0.10;0.10;;;;;;;8.36;100.00;97585.72;5112909;28;20240;-53
2023/12/13 09:02:34;;;;;;;0.00;0.00;;;;;;;8.36;100.00;97591.00;5114126;28;20269;-53
2023/12/13 09:05:22;;;;;;;0.00;0.00;;;;;;;8.40;100.00;97589.81;5114620;28;20218;-53
2023/12/13 09:08:09;;;;;;;0.00;0.00;;;;;;;8.33;100.00;97592.06;5114511;28;20195;-53
2023/12/13 09:10:56;;;;;;;0.00;0.00;;;;;;;8.55;100.00;97586.75;5114432;28;20367;-52
2023/12/13 09:13:43;;;;;;;0.00;0.00;;;;;;;8.46;100.00;97582.22;5113094;28;20198;-53
2023/12/13 09:16:30;;;;;;;0.00;0.00;;;;;;;8.46;100.00;97584.88;5113969;28;20259;-53
2023/12/13 09:19:17;;;;;;;0.00;0.00;;;;;;;8.56;100.00;97587.59;5113853;28;20225;-53
2023/12/13 09:22:13;;;;;;;0.00;0.00;;;;;;;8.62;100.00;97589.75;5113050;28;20195;-53
2023/12/13 09:25:00;;;;;;;0.00;0.00;;;;;;;8.57;100.00;97589.28;5114027;28;20293;-53
2023/12/13 09:27:47;;;;;;;0.00;0.00;;;;;;;8.55;100.00;97585.94;5112766;28;20224;-53
2023/12/13 09:30:34;;;;;;;0.00;0.00;;;;;;;8.63;100.00;97587.94;5114415;28;20198;-52
2023/12/13 09:33:20;;;;;;;0.00;0.00;;;;;;;8.49;100.00;97579.38;5114052;28;20263;-53
2023/12/13 09:36:09;;;;;;;0.00;0.00;;;;;;;8.41;100.00;97581.78;5114212;28;20271;-52
2023/12/13 09:38:57;;;;;;;0.00;0.00;;;;;;;8.43;100.00;97586.94;5113926;28;20190;-53
2023/12/13 09:41:54;;;;;;;0.00;0.00;;;;;;;8.46;100.00;97584.88;5113509;28;20222;-53
2023/12/13 09:44:42;;;;;;;0.00;0.00;;;;;;;8.37;100.00;97584.78;5112778;28;20198;-53
2023/12/13 09:47:33;;;;;;;0.00;0.00;;;;;;;8.28;100.00;97586.31;5113453;28;20198;-53
2023/12/13 09:50:22;;;;;;;0.00;0.00;;;;;;;8.38;100.00;97584.63;5113650;28;20268;-53
2023/12/13 09:53:10;;;;;;;0.00;0.00;;;;;;;8.29;100.00;97587.97;5113603;28;20197;-53
2023/12/13 09:56:00;;;;;;;0.00;0.00;;;;;;;8.71;100.00;97590.81;5113760;28;20194;-53
2023/12/13 09:58:47;;;;;;;0.00;0.00;;;;;;;8.63;100.00;97591.44;5112178;28;20244;-53
2023/12/13 10:01:34;;;;;;;0.00;0.00;;;;;;;8.75;100.00;97592.22;5113027;28;20276;-53
2023/12/13 10:04:21;;;;;;;0.00;0.00;;;;;;;8.77;100.00;97591.13;5113580;28;20194;-53
2023/12/13 10:07:08;;;;;;;0.00;0.00;;;;;;;8.59;100.00;97588.22;5113545;28;20198;-53
2023/12/13 10:09:55;;;;;;;0.00;0.00;;;;;;;8.89;100.00;97586.66;5113483;28;20272;-53
2023/12/13 10:12:43;;;;;;;0.00;0.00;;;;;;;8.95;100.00;97580.03;5112159;28;20271;-53
2023/12/13 10:15:31;;;;;;;0.00;0.00;;;;;;;9.11;100.00;97577.78;5113476;28;20252;-52
2023/12/13 10:18:18;;;;;;;0.00;0.00;;;;;;;9.00;100.00;97575.22;5112540;28;20332;-51
2023/12/13 10:21:07;;;;;;;0.00;0.00;;;;;;;8.89;100.00;97566.38;5112968;28;20215;-51
2023/12/13 10:23:54;;;;;;;0.00;0.00;;;;;;;8.98;100.00;97566.59;5113083;28;20202;-51
2023/12/13 10:26:41;;;;;;;0.00;0.00;;;;;;;8.96;100.00;97563.22;5113358;28;20214;-51
2023/12/13 10:29:30;;;;;;;0.00;0.00;;;;;;;8.80;100.00;97564.50;5111632;28;20675;-51
2023/12/13 10:32:18;;;;;;;0.00;0.00;;;;;;;9.02;100.00;97565.34;5113251;28;20198;-51
2023/12/13 10:35:06;;;;;;;0.00;0.00;;;;;;;8.88;100.00;97558.59;5113289;28;20198;-51
2023/12/13 10:37:56;;;;;;;0.00;0.00;;;;;;;8.89;100.00;97562.91;5113037;28;20194;-51
2023/12/13 10:40:43;;;;;;;0.00;0.00;;;;;;;8.92;100.00;97554.72;5112948;28;20225;-51
2023/12/13 10:43:32;;;;;;;0.00;0.00;;;;;;;8.94;100.00;97559.88;5111867;28;20194;-52
2023/12/13 10:46:22;;;;;;;0.00;0.00;;;;;;;8.91;100.00;97550.41;5112845;28;20652;-51
2023/12/13 10:49:10;;;;;;;0.00;0.00;;;;;;;8.82;100.00;97556.44;5113151;28;20198;-54
2023/12/13 10:51:57;;;;;;;0.00;0.00;;;;;;;8.84;100.00;97543.94;5112796;28;20211;-51
2023/12/13 10:54:45;;;;;;;0.00;0.00;;;;;;;8.84;100.00;97547.44;5112693;28;20244;-54
2023/12/13 10:57:32;;;;;;;0.00;0.00;;;;;;;9.00;100.00;97544.34;5112884;28;20331;-54
2023/12/13 11:00:20;;;;;;;0.00;0.00;;;;;;;9.05;100.00;97541.31;5112606;28;20194;-54
2023/12/13 11:03:14;;;;;;;0.00;0.00;;;;;;;9.13;100.00;97542.34;5113115;28;20186;-51
2023/12/13 11:06:04;;;;;;;0.00;0.00;;;;;;;9.30;100.00;97543.56;5112869;28;20194;-52
2023/12/13 11:08:51;;;;;;;0.00;0.00;;;;;;;9.38;100.00;97535.84;5113004;28;20206;-52
2023/12/13 11:11:38;;;;;;;0.00;0.00;;;;;;;9.89;100.00;97539.41;5112062;28;20182;-52
2023/12/13 11:14:26;;;;;;;0.00;0.00;;;;;;;10.21;100.00;97539.22;5115479;28;20664;-51
2023/12/13 11:17:14;;;;;;;0.00;0.00;;;;;;;10.69;100.00;97536.66;5116653;28;20206;-52
2023/12/13 11:20:09;;;;;;;0.00;0.00;;;;;;;11.73;100.00;97522.53;5116729;28;20256;-52
2023/12/13 11:22:57;;;;;;;0.10;0.10;;;;;;;12.93;100.00;97506.41;5116484;28;20214;-52
2023/12/13 11:25:45;;;;;;;0.00;0.00;;;;;;;13.84;100.00;97476.78;5116467;28;20189;-52
2023/12/13 11:28:38;;;;;;;0.10;0.10;;;;;;;14.38;100.00;97422.19;5115195;28;20711;-52
2023/12/13 11:31:26;;;;;;;0.10;0.10;;;;;;;13.81;100.00;97407.91;5116711;28;20182;-52
2023/12/13 11:34:14;;;;;;;0.10;0.10;;;;;;;12.68;100.00;97385.03;5116463;28;20191;-52
2023/12/13 11:37:04;;;;;;;0.00;0.00;;;;;;;12.45;100.00;97390.84;5116354;28;20207;-52
2023/12/13 11:39:51;;;;;;;0.10;0.10;;;;;;;11.70;100.00;97379.63;5116272;28;20194;-53
2023/12/13 11:42:38;;;;;;;0.00;0.00;;;;;;;11.19;100.00;97385.44;5114635;28;20343;-53
2023/12/13 11:45:25;;;;;;;0.10;0.10;;;;;;;11.02;100.00;97392.38;5116571;28;20198;-53
2023/12/13 11:48:12;;;;;;;0.10;0.10;;;;;;;10.85;100.00;97388.63;5116139;28;20194;-52
2023/12/13 11:50:59;;;;;;;0.10;0.10;;;;;;;10.45;100.00;97394.16;5115816;28;20194;-52
2023/12/13 11:53:49;;;;;;;0.00;0.00;;;;;;;10.26;100.00;97400.28;5115860;28;20210;-52
2023/12/13 11:56:36;;;;;;;0.00;0.00;;;;;;;9.87;100.00;97406.50;5115706;28;20197;-52
2023/12/13 11:59:24;;;;;;;0.00;0.00;;;;;;;9.63;100.00;97414.78;5114520;28;20198;-52
2023/12/13 12:02:12;;;;;;;0.10;0.10;;;;;;;9.59;100.00;97418.69;5115800;28;20222;-52
2023/12/13 12:05:01;;;;;;;0.10;0.10;;;;;;;9.63;100.00;97420.06;5115669;28;20205;-52
2023/12/13 12:07:56;;;;;;;0.00;0.00;;;;;;;10.15;100.00;97421.56;5115608;28;20202;-52
2023/12/13 12:10:46;;;;;;;0.00;0.00;;;;;;;11.61;100.00;97422.09;5115643;28;20194;-52
2023/12/13 12:13:33;;;;;;;0.03;0.03;;;;;;;14.69;100.00;97394.91;5114456;28;20186;-53
2023/12/13 12:16:20;;;;;;;0.00;0.00;;;;;;;16.38;100.00;97370.41;5115952;28;20273;-52
2023/12/13 12:19:07;;;;;;;0.10;0.10;;;;;;;16.06;100.00;97346.59;5115452;28;20712;-53
2023/12/13 12:21:55;;;;;;;0.10;0.10;;;;;;;14.95;100.00;97347.53;5115572;28;20279;-52
2023/12/13 12:24:42;;;;;;;0.10;0.10;;;;;;;14.81;100.00;97356.25;5114860;28;20206;-53
2023/12/13 12:27:30;;;;;;;0.10;0.10;;;;;;;14.53;100.00;97340.63;5115535;28;20198;-53
2023/12/13 12:30:19;;;;;;;0.03;0.03;;;;;;;13.43;100.00;97338.28;5115584;28;20616;-53
2023/12/13 12:33:06;;;;;;;0.10;0.10;;;;;;;12.54;100.00;97347.41;5115313;28;20182;-53
2023/12/13 12:35:52;;;;;;;0.10;0.10;;;;;;;12.17;100.00;97357.41;5115345;28;20190;-53
2023/12/13 12:38:39;;;;;;;0.10;0.10;;;;;;;12.14;100.00;97355.03;5115426;28;20194;-53
2023/12/13 12:41:28;;;;;;;0.00;0.00;;;;;;;11.82;100.00;97358.22;5115263;28;20198;-52
2023/12/13 12:44:17;;;;;;;0.10;0.10;;;;;;;11.93;100.00;97364.13;5113783;28;20209;-53
2023/12/13 12:47:04;;;;;;;0.10;0.10;;;;;;;12.24;100.00;97361.09;5115316;28;20198;-53
2023/12/13 12:49:52;;;;;;;0.00;0.00;;;;;;;12.36;100.00;97362.56;5114878;28;20201;-53
2023/12/13 12:52:41;;;;;;;0.00;0.00;;;;;;;12.44;100.00;97359.09;5114962;28;20184;-52
2023/12/13 12:55:29;;;;;;;0.10;0.10;;;;;;;11.98;100.00;97353.91;5114823;28;20231;-53
2023/12/13 12:58:15;;;;;;;0.00;0.00;;;;;;;11.72;100.00;97363.56;5113477;28;20199;-53
2023/12/13 13:01:04;;;;;;;0.00;0.00;;;;;;;11.73;100.00;97359.91;5114503;28;20199;-53
2023/12/13 13:03:51;;;;;;;0.10;0.10;;;;;;;11.23;100.00;97363.00;5114006;28;20233;-53
2023/12/13 13:06:38;;;;;;;0.10;0.10;;;;;;;11.22;100.00;97363.16;5114721;28;20212;-53